Orbital elements of FENGYUN 1C DEB
| Launched | 9 May 1999 |
| Flight ended | – |
| Launch site | Taiyuan Space Center, PRC |
| Owner | People's Republic of China |
| NORAD ID | 31332 |
| Date fetched |
Epoch osculation |
Inc. [°] |
Ecc. | RA asc node [hr] |
Arg Peri. [°] |
Mean anom [°] |
Mean motion [rev/day] |
Abs. mag |
| Date fetched |
Epoch osculation |
Inc. [°] |
Ecc. | RA asc node [hr] |
Arg Peri. [°] |
Mean anom [°] |
Mean motion [rev/day] |
Abs. mag |
| 2026 May 05 17:57 | 2026 May 04 23:04:25 | 98.7025 | 0.00485 | 9.0773 | 338.9801 | 50.2104 | 14.12324 | – |
| 2026 May 04 17:57 | 2026 Apr 30 12:32:37 | 98.7025 | 0.00489 | 8.7898 | 351.7473 | 50.2104 | 14.12324 | – |
| 2026 May 03 17:57 | 2026 Apr 30 12:32:37 | 98.7025 | 0.00489 | 8.7898 | 351.7473 | 50.2104 | 14.12324 | – |
| 2026 May 02 17:57 | 2026 Apr 30 12:32:37 | 98.7025 | 0.00489 | 8.7898 | 351.7473 | 50.2104 | 14.12324 | – |
| 2026 May 01 17:56 | 2026 Apr 30 12:32:37 | 98.7025 | 0.00489 | 8.7898 | 351.7473 | 50.2104 | 14.12324 | – |
| 2026 Apr 30 17:56 | 2026 Apr 30 12:32:37 | 98.7025 | 0.00489 | 8.7898 | 351.7473 | 50.2104 | 14.12324 | – |
| 2026 Apr 29 17:57 | 2026 Apr 24 12:01:01 | 98.7031 | 0.00494 | 8.3999 | 8.9419 | 50.2104 | 14.12324 | – |
| 2026 Apr 28 17:56 | 2026 Apr 24 12:01:01 | 98.7031 | 0.00494 | 8.3999 | 8.9419 | 50.2104 | 14.12324 | – |
| 2026 Apr 27 17:58 | 2026 Apr 24 12:01:01 | 98.7031 | 0.00494 | 8.3999 | 8.9419 | 50.2104 | 14.12324 | – |
| 2026 Apr 26 17:58 | 2026 Apr 24 12:01:01 | 98.7031 | 0.00494 | 8.3999 | 8.9419 | 50.2104 | 14.12324 | – |
| 2026 Apr 25 17:58 | 2026 Apr 24 12:01:01 | 98.7031 | 0.00494 | 8.3999 | 8.9419 | 50.2104 | 14.12324 | – |
| 2026 Apr 24 17:59 | 2026 Apr 24 12:01:01 | 98.7031 | 0.00494 | 8.3999 | 8.9419 | 50.2104 | 14.12324 | – |
| 2026 Apr 23 17:57 | 2026 Apr 17 18:36:09 | 98.7038 | 0.00500 | 7.9643 | 27.9146 | 50.2104 | 14.12324 | – |
| 2026 Apr 22 17:57 | 2026 Apr 17 18:36:09 | 98.7038 | 0.00500 | 7.9643 | 27.9146 | 50.2104 | 14.12324 | – |
| 2026 Apr 21 17:57 | 2026 Apr 17 18:36:09 | 98.7038 | 0.00500 | 7.9643 | 27.9146 | 50.2104 | 14.12324 | – |
| 2026 Apr 20 17:57 | 2026 Apr 17 18:36:09 | 98.7038 | 0.00500 | 7.9643 | 27.9146 | 50.2104 | 14.12324 | – |
| 2026 Apr 19 17:58 | 2026 Apr 17 18:36:09 | 98.7038 | 0.00500 | 7.9643 | 27.9146 | 50.2104 | 14.12324 | – |
| 2026 Apr 18 17:56 | 2026 Apr 12 12:38:59 | 98.7046 | 0.00503 | 7.6245 | 42.6460 | 50.2104 | 14.12324 | – |
| 2026 Apr 16 17:57 | 2026 Apr 12 12:38:59 | 98.7046 | 0.00503 | 7.6245 | 42.6460 | 50.2104 | 14.12324 | – |
| 2026 Apr 14 17:57 | 2026 Apr 12 12:38:59 | 98.7046 | 0.00503 | 7.6245 | 42.6460 | 50.2104 | 14.12324 | – |
| 2026 Apr 13 17:57 | 2026 Apr 12 12:38:59 | 98.7046 | 0.00503 | 7.6245 | 42.6460 | 50.2104 | 14.12324 | – |
| 2026 Apr 12 17:57 | 2026 Apr 06 23:36:54 | 98.7042 | 0.00507 | 7.2655 | 58.0373 | 50.2104 | 14.12324 | – |
| 2026 Apr 11 17:57 | 2026 Apr 06 23:36:54 | 98.7042 | 0.00507 | 7.2655 | 58.0373 | 50.2104 | 14.12324 | – |
| 2026 Apr 10 17:58 | 2026 Apr 06 23:36:54 | 98.7042 | 0.00507 | 7.2655 | 58.0373 | 50.2104 | 14.12324 | – |
| 2026 Apr 09 18:01 | 2026 Apr 06 23:36:54 | 98.7042 | 0.00507 | 7.2655 | 58.0373 | 50.2104 | 14.12324 | – |
| 2026 Apr 08 17:57 | 2026 Apr 06 23:36:54 | 98.7042 | 0.00507 | 7.2655 | 58.0373 | 50.2104 | 14.12324 | – |